sensor_id;sensor_type;location;lat;lon;timestamp;temperature;humidity
51922;DHT22;37948;53.260;6.394;2022-12-18T00:01:38;-2.50;99.90
51922;DHT22;37948;53.260;6.394;2022-12-18T00:04:06;-2.50;99.90
51922;DHT22;37948;53.260;6.394;2022-12-18T00:06:34;-2.50;99.90
51922;DHT22;37948;53.260;6.394;2022-12-18T00:09:00;-2.40;99.90
51922;DHT22;37948;53.260;6.394;2022-12-18T00:11:28;-2.50;99.90
51922;DHT22;37948;53.260;6.394;2022-12-18T00:13:57;-2.50;99.90
51922;DHT22;37948;53.260;6.394;2022-12-18T00:16:24;-2.50;99.90
51922;DHT22;37948;53.260;6.394;2022-12-18T00:18:52;-2.50;99.90
51922;DHT22;37948;53.260;6.394;2022-12-18T00:21:19;-2.40;99.90
51922;DHT22;37948;53.260;6.394;2022-12-18T00:23:46;-2.50;99.90
51922;DHT22;37948;53.260;6.394;2022-12-18T00:26:34;-2.50;99.90
51922;DHT22;37948;53.260;6.394;2022-12-18T00:29:02;-2.40;99.90
51922;DHT22;37948;53.260;6.394;2022-12-18T00:31:27;-2.50;99.90
51922;DHT22;37948;53.260;6.394;2022-12-18T00:33:54;-2.40;99.90
51922;DHT22;37948;53.260;6.394;2022-12-18T00:36:23;-2.50;99.90
51922;DHT22;37948;53.260;6.394;2022-12-18T00:38:50;-2.40;99.90
51922;DHT22;37948;53.260;6.394;2022-12-18T00:41:17;-2.40;99.90
51922;DHT22;37948;53.260;6.394;2022-12-18T00:44:03;-2.50;99.90
51922;DHT22;37948;53.260;6.394;2022-12-18T00:46:30;-2.50;99.90
51922;DHT22;37948;53.260;6.394;2022-12-18T00:48:55;-2.50;99.90
51922;DHT22;37948;53.260;6.394;2022-12-18T00:51:23;-2.50;99.90
51922;DHT22;37948;53.260;6.394;2022-12-18T00:53:48;-2.50;99.90
51922;DHT22;37948;53.260;6.394;2022-12-18T00:56:14;-2.60;99.90
51922;DHT22;37948;53.260;6.394;2022-12-18T00:58:39;-2.60;99.90
51922;DHT22;37948;53.260;6.394;2022-12-18T01:01:06;-2.60;99.90
51922;DHT22;37948;53.260;6.394;2022-12-18T01:03:31;-2.60;99.90
51922;DHT22;37948;53.260;6.394;2022-12-18T01:05:57;-2.60;99.90
51922;DHT22;37948;53.260;6.394;2022-12-18T01:08:23;-2.60;99.90
51922;DHT22;37948;53.260;6.394;2022-12-18T01:10:48;-2.60;99.90
51922;DHT22;37948;53.260;6.394;2022-12-18T01:13:14;-2.60;99.90
51922;DHT22;37948;53.260;6.394;2022-12-18T01:15:39;-2.60;99.90
51922;DHT22;37948;53.260;6.394;2022-12-18T01:18:05;-2.70;99.90
51922;DHT22;37948;53.260;6.394;2022-12-18T01:20:31;-2.70;99.90
51922;DHT22;37948;53.260;6.394;2022-12-18T01:22:57;-2.70;99.90
51922;DHT22;37948;53.260;6.394;2022-12-18T01:25:22;-2.70;99.90
51922;DHT22;37948;53.260;6.394;2022-12-18T01:27:48;-2.70;99.90
51922;DHT22;37948;53.260;6.394;2022-12-18T01:30:13;-2.80;99.90
51922;DHT22;37948;53.260;6.394;2022-12-18T01:32:39;-2.80;99.90
51922;DHT22;37948;53.260;6.394;2022-12-18T01:35:05;-2.80;99.90
51922;DHT22;37948;53.260;6.394;2022-12-18T01:37:31;-2.80;99.90
51922;DHT22;37948;53.260;6.394;2022-12-18T01:39:56;-2.80;99.90
51922;DHT22;37948;53.260;6.394;2022-12-18T01:42:22;-2.80;99.90
51922;DHT22;37948;53.260;6.394;2022-12-18T01:47:39;-2.90;99.90
51922;DHT22;37948;53.260;6.394;2022-12-18T01:50:24;-2.90;99.90
51922;DHT22;37948;53.260;6.394;2022-12-18T01:53:04;-2.90;99.90
51922;DHT22;37948;53.260;6.394;2022-12-18T01:56:06;-2.90;99.90
51922;DHT22;37948;53.260;6.394;2022-12-18T02:01:10;-2.90;99.90
51922;DHT22;37948;53.260;6.394;2022-12-18T02:03:36;-2.90;99.90
51922;DHT22;37948;53.260;6.394;2022-12-18T02:06:34;-2.90;99.90
51922;DHT22;37948;53.260;6.394;2022-12-18T02:09:20;-2.90;99.90
51922;DHT22;37948;53.260;6.394;2022-12-18T02:14:40;-3.00;99.90
51922;DHT22;37948;53.260;6.394;2022-12-18T02:17:18;-3.00;99.90
51922;DHT22;37948;53.260;6.394;2022-12-18T02:22:49;-3.00;99.90
51922;DHT22;37948;53.260;6.394;2022-12-18T02:28:26;-3.10;99.90
51922;DHT22;37948;53.260;6.394;2022-12-18T02:30:56;-3.20;99.90
51922;DHT22;37948;53.260;6.394;2022-12-18T02:33:25;-3.20;99.90
51922;DHT22;37948;53.260;6.394;2022-12-18T02:35:53;-3.20;99.90
51922;DHT22;37948;53.260;6.394;2022-12-18T02:38:19;-3.20;99.90
51922;DHT22;37948;53.260;6.394;2022-12-18T02:40:46;-3.20;99.90
51922;DHT22;37948;53.260;6.394;2022-12-18T02:43:14;-3.20;99.90
51922;DHT22;37948;53.260;6.394;2022-12-18T02:45:53;-3.20;99.90
51922;DHT22;37948;53.260;6.394;2022-12-18T02:48:24;-3.20;99.90
51922;DHT22;37948;53.260;6.394;2022-12-18T02:56:05;-3.20;99.90
51922;DHT22;37948;53.260;6.394;2022-12-18T03:01:34;-3.20;99.90
51922;DHT22;37948;53.260;6.394;2022-12-18T03:06:56;-3.30;99.90
51922;DHT22;37948;53.260;6.394;2022-12-18T03:09:29;-3.30;99.90
51922;DHT22;37948;53.260;6.394;2022-12-18T03:12:02;-3.30;99.90
51922;DHT22;37948;53.260;6.394;2022-12-18T03:17:32;-3.40;99.90
51922;DHT22;37948;53.260;6.394;2022-12-18T03:20:05;-3.40;99.90
51922;DHT22;37948;53.260;6.394;2022-12-18T03:22:33;-3.40;99.90
51922;DHT22;37948;53.260;6.394;2022-12-18T03:25:03;-3.40;99.90
51922;DHT22;37948;53.260;6.394;2022-12-18T03:27:30;-3.40;99.90
51922;DHT22;37948;53.260;6.394;2022-12-18T03:30:03;-3.40;99.90
51922;DHT22;37948;53.260;6.394;2022-12-18T03:33:19;-3.40;99.90
51922;DHT22;37948;53.260;6.394;2022-12-18T03:35:30;-3.40;99.90
51922;DHT22;37948;53.260;6.394;2022-12-18T03:37:56;-3.50;99.90
51922;DHT22;37948;53.260;6.394;2022-12-18T03:40:29;-3.50;99.90
51922;DHT22;37948;53.260;6.394;2022-12-18T03:43:08;-3.40;99.90
51922;DHT22;37948;53.260;6.394;2022-12-18T03:45:40;-3.50;99.90
51922;DHT22;37948;53.260;6.394;2022-12-18T03:50:56;-3.50;99.90
51922;DHT22;37948;53.260;6.394;2022-12-18T03:53:48;-3.50;99.90
51922;DHT22;37948;53.260;6.394;2022-12-18T03:56:16;-3.50;99.90
51922;DHT22;37948;53.260;6.394;2022-12-18T03:58:43;-3.50;99.90
51922;DHT22;37948;53.260;6.394;2022-12-18T04:01:13;-3.50;99.90
51922;DHT22;37948;53.260;6.394;2022-12-18T04:03:41;-3.60;99.90
51922;DHT22;37948;53.260;6.394;2022-12-18T04:06:07;-3.60;99.90
51922;DHT22;37948;53.260;6.394;2022-12-18T04:08:34;-3.60;99.90
51922;DHT22;37948;53.260;6.394;2022-12-18T04:11:01;-3.60;99.90
51922;DHT22;37948;53.260;6.394;2022-12-18T04:13:34;-3.60;99.90
51922;DHT22;37948;53.260;6.394;2022-12-18T04:16:00;-3.60;99.90
51922;DHT22;37948;53.260;6.394;2022-12-18T04:18:26;-3.60;99.90
51922;DHT22;37948;53.260;6.394;2022-12-18T04:20:52;-3.60;99.90
51922;DHT22;37948;53.260;6.394;2022-12-18T04:23:17;-3.60;99.90
51922;DHT22;37948;53.260;6.394;2022-12-18T04:25:43;-3.60;99.90
51922;DHT22;37948;53.260;6.394;2022-12-18T04:28:08;-3.70;99.90
51922;DHT22;37948;53.260;6.394;2022-12-18T04:30:34;-3.70;99.90
51922;DHT22;37948;53.260;6.394;2022-12-18T04:33:00;-3.60;99.90
51922;DHT22;37948;53.260;6.394;2022-12-18T04:35:26;-3.70;99.90
51922;DHT22;37948;53.260;6.394;2022-12-18T04:37:51;-3.70;99.90
51922;DHT22;37948;53.260;6.394;2022-12-18T04:40:17;-3.70;99.90
51922;DHT22;37948;53.260;6.394;2022-12-18T04:42:43;-3.70;99.90
51922;DHT22;37948;53.260;6.394;2022-12-18T04:45:08;-3.70;99.90
51922;DHT22;37948;53.260;6.394;2022-12-18T04:47:34;-3.70;99.90
51922;DHT22;37948;53.260;6.394;2022-12-18T04:50:00;-3.80;99.90
51922;DHT22;37948;53.260;6.394;2022-12-18T04:52:25;-3.80;99.90
51922;DHT22;37948;53.260;6.394;2022-12-18T04:54:51;-3.80;99.90
51922;DHT22;37948;53.260;6.394;2022-12-18T04:57:16;-3.80;99.90
51922;DHT22;37948;53.260;6.394;2022-12-18T04:59:43;-3.80;99.90
51922;DHT22;37948;53.260;6.394;2022-12-18T05:02:09;-3.80;99.90
51922;DHT22;37948;53.260;6.394;2022-12-18T05:04:35;-3.80;99.90
51922;DHT22;37948;53.260;6.394;2022-12-18T05:07:00;-3.70;99.90
51922;DHT22;37948;53.260;6.394;2022-12-18T05:09:26;-3.80;99.90
51922;DHT22;37948;53.260;6.394;2022-12-18T05:11:51;-3.70;99.90
51922;DHT22;37948;53.260;6.394;2022-12-18T05:14:17;-3.80;99.90
51922;DHT22;37948;53.260;6.394;2022-12-18T05:16:42;-3.80;99.90
51922;DHT22;37948;53.260;6.394;2022-12-18T05:19:08;-3.80;99.90
51922;DHT22;37948;53.260;6.394;2022-12-18T05:21:34;-3.80;99.90
51922;DHT22;37948;53.260;6.394;2022-12-18T05:23:59;-3.80;99.90
51922;DHT22;37948;53.260;6.394;2022-12-18T05:26:25;-3.80;99.90
51922;DHT22;37948;53.260;6.394;2022-12-18T05:28:50;-3.90;99.90
51922;DHT22;37948;53.260;6.394;2022-12-18T05:31:16;-3.80;99.90
51922;DHT22;37948;53.260;6.394;2022-12-18T05:33:41;-3.80;99.90
51922;DHT22;37948;53.260;6.394;2022-12-18T05:36:08;-3.80;99.90
51922;DHT22;37948;53.260;6.394;2022-12-18T05:38:36;-3.90;99.90
51922;DHT22;37948;53.260;6.394;2022-12-18T05:41:03;-3.90;99.90
51922;DHT22;37948;53.260;6.394;2022-12-18T05:43:29;-3.90;99.90
51922;DHT22;37948;53.260;6.394;2022-12-18T05:45:55;-3.90;99.90
51922;DHT22;37948;53.260;6.394;2022-12-18T05:48:22;-3.90;99.90
51922;DHT22;37948;53.260;6.394;2022-12-18T05:50:49;-3.90;99.90
51922;DHT22;37948;53.260;6.394;2022-12-18T05:53:18;-4.00;99.90
51922;DHT22;37948;53.260;6.394;2022-12-18T05:55:44;-4.00;99.90
51922;DHT22;37948;53.260;6.394;2022-12-18T05:58:11;-3.90;99.90
51922;DHT22;37948;53.260;6.394;2022-12-18T06:00:39;-4.00;99.90
51922;DHT22;37948;53.260;6.394;2022-12-18T06:03:06;-4.00;99.90
51922;DHT22;37948;53.260;6.394;2022-12-18T06:05:39;-4.00;99.90
51922;DHT22;37948;53.260;6.394;2022-12-18T06:08:05;-4.00;99.90
51922;DHT22;37948;53.260;6.394;2022-12-18T06:10:31;-4.00;99.90
51922;DHT22;37948;53.260;6.394;2022-12-18T06:12:57;-4.00;99.90
51922;DHT22;37948;53.260;6.394;2022-12-18T06:15:23;-4.00;99.90
51922;DHT22;37948;53.260;6.394;2022-12-18T06:17:49;-4.00;99.90
51922;DHT22;37948;53.260;6.394;2022-12-18T06:20:14;-4.00;99.90
51922;DHT22;37948;53.260;6.394;2022-12-18T06:22:40;-4.00;99.90
51922;DHT22;37948;53.260;6.394;2022-12-18T06:25:06;-4.00;99.90
51922;DHT22;37948;53.260;6.394;2022-12-18T06:27:32;-4.00;99.90
51922;DHT22;37948;53.260;6.394;2022-12-18T06:29:59;-4.00;99.90
51922;DHT22;37948;53.260;6.394;2022-12-18T06:32:25;-4.00;99.90
51922;DHT22;37948;53.260;6.394;2022-12-18T06:34:50;-4.00;99.90
51922;DHT22;37948;53.260;6.394;2022-12-18T06:37:16;-4.00;99.90
51922;DHT22;37948;53.260;6.394;2022-12-18T06:39:42;-4.00;99.90
51922;DHT22;37948;53.260;6.394;2022-12-18T06:42:07;-4.10;99.90
51922;DHT22;37948;53.260;6.394;2022-12-18T06:44:33;-4.00;99.90
51922;DHT22;37948;53.260;6.394;2022-12-18T06:46:58;-4.10;99.90
51922;DHT22;37948;53.260;6.394;2022-12-18T06:49:24;-4.10;99.90
51922;DHT22;37948;53.260;6.394;2022-12-18T06:51:49;-4.10;99.90
51922;DHT22;37948;53.260;6.394;2022-12-18T06:54:15;-4.10;99.90
51922;DHT22;37948;53.260;6.394;2022-12-18T06:56:41;-4.10;99.90
51922;DHT22;37948;53.260;6.394;2022-12-18T06:59:06;-4.20;99.90
51922;DHT22;37948;53.260;6.394;2022-12-18T07:01:32;-4.20;99.90
51922;DHT22;37948;53.260;6.394;2022-12-18T07:03:57;-4.20;99.90
51922;DHT22;37948;53.260;6.394;2022-12-18T07:06:25;-4.20;99.90
51922;DHT22;37948;53.260;6.394;2022-12-18T07:08:53;-4.20;99.90
51922;DHT22;37948;53.260;6.394;2022-12-18T07:11:19;-4.20;99.90
51922;DHT22;37948;53.260;6.394;2022-12-18T07:13:46;-4.20;99.90
51922;DHT22;37948;53.260;6.394;2022-12-18T07:16:14;-4.20;99.90
51922;DHT22;37948;53.260;6.394;2022-12-18T07:18:40;-4.20;99.90
51922;DHT22;37948;53.260;6.394;2022-12-18T07:21:08;-4.20;99.90
51922;DHT22;37948;53.260;6.394;2022-12-18T07:23:34;-4.20;99.90
51922;DHT22;37948;53.260;6.394;2022-12-18T07:26:05;-4.20;99.90
51922;DHT22;37948;53.260;6.394;2022-12-18T07:28:32;-4.20;99.90
51922;DHT22;37948;53.260;6.394;2022-12-18T07:31:01;-4.10;99.90
51922;DHT22;37948;53.260;6.394;2022-12-18T07:33:27;-4.10;99.90
51922;DHT22;37948;53.260;6.394;2022-12-18T07:35:52;-4.10;99.90
51922;DHT22;37948;53.260;6.394;2022-12-18T07:38:18;-4.20;99.90
51922;DHT22;37948;53.260;6.394;2022-12-18T07:40:43;-4.10;99.90
51922;DHT22;37948;53.260;6.394;2022-12-18T07:43:09;-4.20;99.90
51922;DHT22;37948;53.260;6.394;2022-12-18T07:45:35;-4.20;99.90
51922;DHT22;37948;53.260;6.394;2022-12-18T07:48:00;-4.20;99.90
51922;DHT22;37948;53.260;6.394;2022-12-18T07:50:26;-4.10;99.90
51922;DHT22;37948;53.260;6.394;2022-12-18T07:52:51;-4.10;99.90
51922;DHT22;37948;53.260;6.394;2022-12-18T07:55:17;-4.10;99.90
51922;DHT22;37948;53.260;6.394;2022-12-18T07:57:42;-4.20;99.90
51922;DHT22;37948;53.260;6.394;2022-12-18T08:00:08;-4.10;99.90
51922;DHT22;37948;53.260;6.394;2022-12-18T08:02:34;-4.20;99.90
51922;DHT22;37948;53.260;6.394;2022-12-18T08:05:00;-4.20;99.90
51922;DHT22;37948;53.260;6.394;2022-12-18T08:07:25;-4.20;99.90
51922;DHT22;37948;53.260;6.394;2022-12-18T08:09:51;-4.20;99.90
51922;DHT22;37948;53.260;6.394;2022-12-18T08:12:16;-4.20;99.90
51922;DHT22;37948;53.260;6.394;2022-12-18T08:14:42;-4.10;99.90
51922;DHT22;37948;53.260;6.394;2022-12-18T08:17:08;-4.10;99.90
51922;DHT22;37948;53.260;6.394;2022-12-18T08:19:33;-4.10;99.90
51922;DHT22;37948;53.260;6.394;2022-12-18T08:21:59;-4.10;99.90
51922;DHT22;37948;53.260;6.394;2022-12-18T08:24:24;-4.00;99.90
51922;DHT22;37948;53.260;6.394;2022-12-18T08:26:51;-4.00;99.90
51922;DHT22;37948;53.260;6.394;2022-12-18T08:29:16;-4.00;99.90
51922;DHT22;37948;53.260;6.394;2022-12-18T08:31:42;-4.10;99.90
51922;DHT22;37948;53.260;6.394;2022-12-18T08:34:08;-4.00;99.90
51922;DHT22;37948;53.260;6.394;2022-12-18T08:36:33;-4.00;99.90
51922;DHT22;37948;53.260;6.394;2022-12-18T08:38:59;-4.00;99.90
51922;DHT22;37948;53.260;6.394;2022-12-18T08:41:25;-4.00;99.90
51922;DHT22;37948;53.260;6.394;2022-12-18T08:43:50;-4.00;99.90
51922;DHT22;37948;53.260;6.394;2022-12-18T08:46:39;-4.00;99.90
51922;DHT22;37948;53.260;6.394;2022-12-18T08:49:06;-4.00;99.90
51922;DHT22;37948;53.260;6.394;2022-12-18T08:51:33;-4.00;99.90
51922;DHT22;37948;53.260;6.394;2022-12-18T08:53:58;-4.00;99.90
51922;DHT22;37948;53.260;6.394;2022-12-18T08:56:24;-4.00;99.90
51922;DHT22;37948;53.260;6.394;2022-12-18T08:58:54;-4.00;99.90
51922;DHT22;37948;53.260;6.394;2022-12-18T09:01:20;-4.00;99.90
51922;DHT22;37948;53.260;6.394;2022-12-18T09:03:46;-4.00;99.90
51922;DHT22;37948;53.260;6.394;2022-12-18T09:06:14;-4.00;99.90
51922;DHT22;37948;53.260;6.394;2022-12-18T09:08:41;-3.90;99.90
51922;DHT22;37948;53.260;6.394;2022-12-18T09:11:15;-3.90;99.90
51922;DHT22;37948;53.260;6.394;2022-12-18T09:13:43;-3.90;99.90
51922;DHT22;37948;53.260;6.394;2022-12-18T09:16:09;-3.90;99.90
51922;DHT22;37948;53.260;6.394;2022-12-18T09:18:35;-3.80;99.90
51922;DHT22;37948;53.260;6.394;2022-12-18T09:21:08;-3.80;99.90
51922;DHT22;37948;53.260;6.394;2022-12-18T09:23:34;-3.80;99.90
51922;DHT22;37948;53.260;6.394;2022-12-18T09:25:59;-3.80;99.90
51922;DHT22;37948;53.260;6.394;2022-12-18T09:28:26;-3.80;99.90
51922;DHT22;37948;53.260;6.394;2022-12-18T09:30:52;-3.80;99.90
51922;DHT22;37948;53.260;6.394;2022-12-18T09:33:18;-3.80;99.90
51922;DHT22;37948;53.260;6.394;2022-12-18T09:35:44;-3.70;99.90
51922;DHT22;37948;53.260;6.394;2022-12-18T09:38:16;-3.70;99.90
51922;DHT22;37948;53.260;6.394;2022-12-18T09:40:46;-3.70;99.90
51922;DHT22;37948;53.260;6.394;2022-12-18T09:43:26;-3.60;99.90
51922;DHT22;37948;53.260;6.394;2022-12-18T09:45:57;-3.60;99.90
51922;DHT22;37948;53.260;6.394;2022-12-18T09:48:50;-3.60;99.90
51922;DHT22;37948;53.260;6.394;2022-12-18T09:51:23;-3.50;99.90
51922;DHT22;37948;53.260;6.394;2022-12-18T09:53:55;-3.50;99.90
51922;DHT22;37948;53.260;6.394;2022-12-18T09:56:22;-3.50;99.90
51922;DHT22;37948;53.260;6.394;2022-12-18T09:59:01;-3.50;99.90
51922;DHT22;37948;53.260;6.394;2022-12-18T10:01:28;-3.40;99.90
51922;DHT22;37948;53.260;6.394;2022-12-18T10:03:53;-3.30;99.90
51922;DHT22;37948;53.260;6.394;2022-12-18T10:06:53;-3.20;99.90
51922;DHT22;37948;53.260;6.394;2022-12-18T10:15:10;-3.00;99.90
51922;DHT22;37948;53.260;6.394;2022-12-18T10:17:45;-2.90;99.90
51922;DHT22;37948;53.260;6.394;2022-12-18T10:20:52;-2.80;99.90
51922;DHT22;37948;53.260;6.394;2022-12-18T10:23:33;-2.70;99.90
51922;DHT22;37948;53.260;6.394;2022-12-18T10:26:07;-2.70;99.90
51922;DHT22;37948;53.260;6.394;2022-12-18T10:28:37;-2.60;99.90
51922;DHT22;37948;53.260;6.394;2022-12-18T10:31:06;-2.50;99.90
51922;DHT22;37948;53.260;6.394;2022-12-18T10:33:33;-2.50;99.90
51922;DHT22;37948;53.260;6.394;2022-12-18T10:35:59;-2.50;99.90
51922;DHT22;37948;53.260;6.394;2022-12-18T10:38:26;-2.50;99.90
51922;DHT22;37948;53.260;6.394;2022-12-18T10:40:55;-2.50;99.90
51922;DHT22;37948;53.260;6.394;2022-12-18T10:43:30;-2.50;99.90
51922;DHT22;37948;53.260;6.394;2022-12-18T10:46:00;-2.50;99.90
51922;DHT22;37948;53.260;6.394;2022-12-18T10:48:26;-2.50;99.90
51922;DHT22;37948;53.260;6.394;2022-12-18T10:50:53;-2.50;99.90
51922;DHT22;37948;53.260;6.394;2022-12-18T10:53:23;-2.50;99.90
51922;DHT22;37948;53.260;6.394;2022-12-18T10:55:52;-2.50;99.90
51922;DHT22;37948;53.260;6.394;2022-12-18T11:01:13;-2.50;99.90
51922;DHT22;37948;53.260;6.394;2022-12-18T11:03:42;-2.50;99.90
51922;DHT22;37948;53.260;6.394;2022-12-18T11:06:15;-2.50;99.90
51922;DHT22;37948;53.260;6.394;2022-12-18T11:08:46;-2.40;99.90
51922;DHT22;37948;53.260;6.394;2022-12-18T11:11:23;-2.40;99.90
51922;DHT22;37948;53.260;6.394;2022-12-18T11:13:58;-2.40;99.90
51922;DHT22;37948;53.260;6.394;2022-12-18T11:16:26;-2.30;99.90
51922;DHT22;37948;53.260;6.394;2022-12-18T11:18:53;-2.30;99.90
51922;DHT22;37948;53.260;6.394;2022-12-18T11:21:19;-2.30;99.90
51922;DHT22;37948;53.260;6.394;2022-12-18T11:23:50;-2.30;99.90
51922;DHT22;37948;53.260;6.394;2022-12-18T11:26:17;-2.20;99.90
51922;DHT22;37948;53.260;6.394;2022-12-18T11:28:52;-2.20;99.90
51922;DHT22;37948;53.260;6.394;2022-12-18T11:31:32;-2.20;99.90
51922;DHT22;37948;53.260;6.394;2022-12-18T11:34:16;-2.20;99.90
51922;DHT22;37948;53.260;6.394;2022-12-18T11:36:47;-2.10;99.90
51922;DHT22;37948;53.260;6.394;2022-12-18T11:42:20;-2.10;99.90
51922;DHT22;37948;53.260;6.394;2022-12-18T11:45:07;-2.00;99.90
51922;DHT22;37948;53.260;6.394;2022-12-18T11:48:28;-2.00;99.90
51922;DHT22;37948;53.260;6.394;2022-12-18T11:50:52;-2.00;99.90
51922;DHT22;37948;53.260;6.394;2022-12-18T11:53:19;-2.00;99.90
51922;DHT22;37948;53.260;6.394;2022-12-18T11:58:30;-2.00;99.90
51922;DHT22;37948;53.260;6.394;2022-12-18T12:24:04;-1.90;99.90
51922;DHT22;37948;53.260;6.394;2022-12-18T12:35:12;-1.80;99.90
51922;DHT22;37948;53.260;6.394;2022-12-18T12:40:18;-1.70;99.90
51922;DHT22;37948;53.260;6.394;2022-12-18T12:42:49;-1.80;99.90
51922;DHT22;37948;53.260;6.394;2022-12-18T12:45:42;-1.70;99.90
51922;DHT22;37948;53.260;6.394;2022-12-18T12:48:18;-1.70;99.90
51922;DHT22;37948;53.260;6.394;2022-12-18T12:50:47;-1.70;99.90
51922;DHT22;37948;53.260;6.394;2022-12-18T12:53:26;-1.70;99.90
51922;DHT22;37948;53.260;6.394;2022-12-18T12:55:55;-1.70;99.90
51922;DHT22;37948;53.260;6.394;2022-12-18T12:58:43;-1.60;99.90
51922;DHT22;37948;53.260;6.394;2022-12-18T13:01:36;-1.60;99.90
51922;DHT22;37948;53.260;6.394;2022-12-18T13:04:08;-1.60;99.90
51922;DHT22;37948;53.260;6.394;2022-12-18T13:07:03;-1.60;99.90
51922;DHT22;37948;53.260;6.394;2022-12-18T13:09:31;-1.60;99.90
51922;DHT22;37948;53.260;6.394;2022-12-18T13:12:03;-1.50;99.90
51922;DHT22;37948;53.260;6.394;2022-12-18T13:14:48;-1.50;99.90
51922;DHT22;37948;53.260;6.394;2022-12-18T13:19:49;-1.50;99.90
51922;DHT22;37948;53.260;6.394;2022-12-18T13:22:24;-1.60;99.90
51922;DHT22;37948;53.260;6.394;2022-12-18T13:24:50;-1.60;99.90
51922;DHT22;37948;53.260;6.394;2022-12-18T13:35:52;-1.60;99.90
51922;DHT22;37948;53.260;6.394;2022-12-18T13:46:27;-1.60;99.90
51922;DHT22;37948;53.260;6.394;2022-12-18T13:48:55;-1.60;99.90
51922;DHT22;37948;53.260;6.394;2022-12-18T13:51:22;-1.50;99.90
51922;DHT22;37948;53.260;6.394;2022-12-18T13:53:52;-1.60;99.90
51922;DHT22;37948;53.260;6.394;2022-12-18T13:56:22;-1.60;99.90
51922;DHT22;37948;53.260;6.394;2022-12-18T14:01:54;-1.50;99.90
51922;DHT22;37948;53.260;6.394;2022-12-18T14:04:21;-1.50;99.90
51922;DHT22;37948;53.260;6.394;2022-12-18T14:06:50;-1.50;99.90
51922;DHT22;37948;53.260;6.394;2022-12-18T14:09:24;-1.50;99.90
51922;DHT22;37948;53.260;6.394;2022-12-18T14:11:51;-1.50;99.90
51922;DHT22;37948;53.260;6.394;2022-12-18T14:14:18;-1.50;99.90
51922;DHT22;37948;53.260;6.394;2022-12-18T14:16:45;-1.50;99.90
51922;DHT22;37948;53.260;6.394;2022-12-18T14:19:17;-1.60;99.90
51922;DHT22;37948;53.260;6.394;2022-12-18T14:21:49;-1.50;99.90
51922;DHT22;37948;53.260;6.394;2022-12-18T14:24:20;-1.60;99.90
51922;DHT22;37948;53.260;6.394;2022-12-18T14:26:48;-1.60;99.90
51922;DHT22;37948;53.260;6.394;2022-12-18T14:29:30;-1.60;99.90
51922;DHT22;37948;53.260;6.394;2022-12-18T14:32:31;-1.60;99.90
51922;DHT22;37948;53.260;6.394;2022-12-18T14:34:57;-1.60;99.90
51922;DHT22;37948;53.260;6.394;2022-12-18T14:37:25;-1.60;99.90
51922;DHT22;37948;53.260;6.394;2022-12-18T14:39:58;-1.60;99.90
51922;DHT22;37948;53.260;6.394;2022-12-18T14:42:26;-1.60;99.90
51922;DHT22;37948;53.260;6.394;2022-12-18T14:47:58;-1.60;99.90
51922;DHT22;37948;53.260;6.394;2022-12-18T14:50:24;-1.60;99.90
51922;DHT22;37948;53.260;6.394;2022-12-18T14:52:50;-1.60;99.90
51922;DHT22;37948;53.260;6.394;2022-12-18T14:55:21;-1.60;99.90
51922;DHT22;37948;53.260;6.394;2022-12-18T14:57:50;-1.60;99.90
51922;DHT22;37948;53.260;6.394;2022-12-18T15:00:20;-1.60;99.90
51922;DHT22;37948;53.260;6.394;2022-12-18T15:02:50;-1.60;99.90
51922;DHT22;37948;53.260;6.394;2022-12-18T15:07:51;-1.60;99.90
51922;DHT22;37948;53.260;6.394;2022-12-18T15:10:32;-1.70;99.90
51922;DHT22;37948;53.260;6.394;2022-12-18T15:20:49;-1.70;99.90
51922;DHT22;37948;53.260;6.394;2022-12-18T15:25:43;-1.70;99.90
51922;DHT22;37948;53.260;6.394;2022-12-18T15:33:38;-1.80;99.90
51922;DHT22;37948;53.260;6.394;2022-12-18T15:36:09;-1.80;99.90
51922;DHT22;37948;53.260;6.394;2022-12-18T15:38:35;-1.80;99.90
51922;DHT22;37948;53.260;6.394;2022-12-18T15:41:00;-1.80;99.90
51922;DHT22;37948;53.260;6.394;2022-12-18T15:43:28;-1.80;99.90
51922;DHT22;37948;53.260;6.394;2022-12-18T15:46:25;-1.80;99.90
51922;DHT22;37948;53.260;6.394;2022-12-18T15:48:54;-1.80;99.90
51922;DHT22;37948;53.260;6.394;2022-12-18T15:51:34;-1.80;99.90
51922;DHT22;37948;53.260;6.394;2022-12-18T15:54:04;-1.90;99.90
51922;DHT22;37948;53.260;6.394;2022-12-18T15:56:32;-1.90;99.90
51922;DHT22;37948;53.260;6.394;2022-12-18T15:59:20;-1.80;99.90
51922;DHT22;37948;53.260;6.394;2022-12-18T16:01:48;-1.80;99.90
51922;DHT22;37948;53.260;6.394;2022-12-18T16:04:16;-1.80;99.90
51922;DHT22;37948;53.260;6.394;2022-12-18T16:06:42;-1.90;99.90
51922;DHT22;37948;53.260;6.394;2022-12-18T16:09:08;-1.90;99.90
51922;DHT22;37948;53.260;6.394;2022-12-18T16:11:36;-1.80;99.90
51922;DHT22;37948;53.260;6.394;2022-12-18T16:16:36;-1.80;99.90
51922;DHT22;37948;53.260;6.394;2022-12-18T16:19:02;-1.80;99.90
51922;DHT22;37948;53.260;6.394;2022-12-18T16:21:28;-1.80;99.90
51922;DHT22;37948;53.260;6.394;2022-12-18T16:23:53;-1.80;99.90
51922;DHT22;37948;53.260;6.394;2022-12-18T16:26:19;-1.80;99.90
51922;DHT22;37948;53.260;6.394;2022-12-18T16:28:44;-1.80;99.90
51922;DHT22;37948;53.260;6.394;2022-12-18T16:31:10;-1.80;99.90
51922;DHT22;37948;53.260;6.394;2022-12-18T16:33:36;-1.80;99.90
51922;DHT22;37948;53.260;6.394;2022-12-18T16:36:01;-1.80;99.90
51922;DHT22;37948;53.260;6.394;2022-12-18T16:38:27;-1.80;99.90
51922;DHT22;37948;53.260;6.394;2022-12-18T16:40:52;-1.80;99.90
51922;DHT22;37948;53.260;6.394;2022-12-18T16:43:36;-1.80;99.90
51922;DHT22;37948;53.260;6.394;2022-12-18T16:46:02;-1.80;99.90
51922;DHT22;37948;53.260;6.394;2022-12-18T16:48:28;-1.90;99.90
51922;DHT22;37948;53.260;6.394;2022-12-18T16:51:02;-1.80;99.90
51922;DHT22;37948;53.260;6.394;2022-12-18T16:53:28;-1.80;99.90
51922;DHT22;37948;53.260;6.394;2022-12-18T16:55:56;-1.80;99.90
51922;DHT22;37948;53.260;6.394;2022-12-18T16:58:22;-1.80;99.90
51922;DHT22;37948;53.260;6.394;2022-12-18T17:00:48;-1.80;99.90
51922;DHT22;37948;53.260;6.394;2022-12-18T17:03:13;-1.80;99.90
51922;DHT22;37948;53.260;6.394;2022-12-18T17:05:39;-1.80;99.90
51922;DHT22;37948;53.260;6.394;2022-12-18T17:08:05;-1.80;99.90
51922;DHT22;37948;53.260;6.394;2022-12-18T17:10:30;-1.80;99.90
51922;DHT22;37948;53.260;6.394;2022-12-18T17:12:56;-1.80;99.90
51922;DHT22;37948;53.260;6.394;2022-12-18T17:15:22;-1.80;99.90
51922;DHT22;37948;53.260;6.394;2022-12-18T17:17:47;-1.80;99.90
51922;DHT22;37948;53.260;6.394;2022-12-18T17:20:13;-1.80;99.90
51922;DHT22;37948;53.260;6.394;2022-12-18T17:22:39;-1.80;99.90
51922;DHT22;37948;53.260;6.394;2022-12-18T17:25:04;-1.70;99.90
51922;DHT22;37948;53.260;6.394;2022-12-18T17:27:30;-1.80;99.90
51922;DHT22;37948;53.260;6.394;2022-12-18T17:29:56;-1.70;99.90
51922;DHT22;37948;53.260;6.394;2022-12-18T17:32:21;-1.70;99.90
51922;DHT22;37948;53.260;6.394;2022-12-18T17:34:47;-1.70;99.90
51922;DHT22;37948;53.260;6.394;2022-12-18T17:37:13;-1.70;99.90
51922;DHT22;37948;53.260;6.394;2022-12-18T17:39:38;-1.70;99.90
51922;DHT22;37948;53.260;6.394;2022-12-18T17:42:04;-1.70;99.90
51922;DHT22;37948;53.260;6.394;2022-12-18T17:44:30;-1.70;99.90
51922;DHT22;37948;53.260;6.394;2022-12-18T17:46:55;-1.70;99.90
51922;DHT22;37948;53.260;6.394;2022-12-18T17:49:21;-1.70;99.90